sensor_id;sensor_type;location;lat;lon;timestamp;pressure;altitude;pressure_sealevel;temperature;humidity
10342;BME280;5216;54.602;18.356;2023-08-24T00:02:21;63055.25;;;-142.69;100.00
10342;BME280;5216;54.602;18.356;2023-08-24T00:04:48;63055.25;;;-142.69;100.00
10342;BME280;5216;54.602;18.356;2023-08-24T00:07:14;63055.25;;;-142.69;100.00
10342;BME280;5216;54.602;18.356;2023-08-24T00:09:41;63055.25;;;-142.69;100.00
10342;BME280;5216;54.602;18.356;2023-08-24T00:12:08;63055.25;;;-142.69;100.00
10342;BME280;5216;54.602;18.356;2023-08-24T00:14:35;63055.25;;;-142.69;100.00
10342;BME280;5216;54.602;18.356;2023-08-24T00:17:02;63055.25;;;-142.69;100.00
10342;BME280;5216;54.602;18.356;2023-08-24T00:35:49;63055.25;;;-142.69;100.00
10342;BME280;5216;54.602;18.356;2023-08-24T00:38:16;63055.25;;;-142.69;100.00
10342;BME280;5216;54.602;18.356;2023-08-24T00:40:43;63055.25;;;-142.69;100.00
10342;BME280;5216;54.602;18.356;2023-08-24T00:43:10;63055.25;;;-142.69;100.00
10342;BME280;5216;54.602;18.356;2023-08-24T00:45:37;63055.25;;;-142.69;100.00
10342;BME280;5216;54.602;18.356;2023-08-24T00:48:04;63055.25;;;-142.69;100.00
10342;BME280;5216;54.602;18.356;2023-08-24T00:58:24;63055.25;;;-142.69;100.00
10342;BME280;5216;54.602;18.356;2023-08-24T01:00:52;63055.25;;;-142.69;100.00
10342;BME280;5216;54.602;18.356;2023-08-24T01:03:24;63055.25;;;-142.69;100.00
10342;BME280;5216;54.602;18.356;2023-08-24T01:06:09;63055.25;;;-142.69;100.00
10342;BME280;5216;54.602;18.356;2023-08-24T01:08:36;63055.25;;;-142.69;100.00
10342;BME280;5216;54.602;18.356;2023-08-24T01:16:31;63055.25;;;-142.69;100.00
10342;BME280;5216;54.602;18.356;2023-08-24T01:21:53;63055.25;;;-142.69;100.00
10342;BME280;5216;54.602;18.356;2023-08-24T01:24:38;63055.25;;;-142.69;100.00
10342;BME280;5216;54.602;18.356;2023-08-24T01:27:06;63055.25;;;-142.69;100.00
10342;BME280;5216;54.602;18.356;2023-08-24T01:37:40;63055.25;;;-142.69;100.00
10342;BME280;5216;54.602;18.356;2023-08-24T01:40:14;63055.25;;;-142.69;100.00
10342;BME280;5216;54.602;18.356;2023-08-24T01:43:03;63055.25;;;-142.69;100.00
10342;BME280;5216;54.602;18.356;2023-08-24T01:45:31;63055.25;;;-142.69;100.00
10342;BME280;5216;54.602;18.356;2023-08-24T01:48:05;63055.25;;;-142.69;100.00
10342;BME280;5216;54.602;18.356;2023-08-24T01:50:33;63055.25;;;-142.69;100.00
10342;BME280;5216;54.602;18.356;2023-08-24T01:53:00;63055.25;;;-142.69;100.00
10342;BME280;5216;54.602;18.356;2023-08-24T01:55:27;63055.25;;;-142.69;100.00
10342;BME280;5216;54.602;18.356;2023-08-24T01:58:13;63055.25;;;-142.69;100.00
10342;BME280;5216;54.602;18.356;2023-08-24T02:00:40;63055.25;;;-142.69;100.00
10342;BME280;5216;54.602;18.356;2023-08-24T02:03:07;63055.25;;;-142.69;100.00
10342;BME280;5216;54.602;18.356;2023-08-24T02:05:34;63055.25;;;-142.69;100.00
10342;BME280;5216;54.602;18.356;2023-08-24T02:08:00;63055.25;;;-142.69;100.00
10342;BME280;5216;54.602;18.356;2023-08-24T02:10:43;63055.25;;;-142.69;100.00
10342;BME280;5216;54.602;18.356;2023-08-24T02:13:09;63055.25;;;-142.69;100.00
10342;BME280;5216;54.602;18.356;2023-08-24T02:15:37;63055.25;;;-142.69;100.00
10342;BME280;5216;54.602;18.356;2023-08-24T02:18:08;63055.25;;;-142.69;100.00
10342;BME280;5216;54.602;18.356;2023-08-24T02:20:38;63055.25;;;-142.69;100.00
10342;BME280;5216;54.602;18.356;2023-08-24T02:23:05;63055.25;;;-142.69;100.00
10342;BME280;5216;54.602;18.356;2023-08-24T02:25:32;63055.25;;;-142.69;100.00
10342;BME280;5216;54.602;18.356;2023-08-24T02:27:59;63055.25;;;-142.69;100.00
10342;BME280;5216;54.602;18.356;2023-08-24T02:30:26;63055.25;;;-142.69;100.00
10342;BME280;5216;54.602;18.356;2023-08-24T02:40:46;63055.25;;;-142.69;100.00
10342;BME280;5216;54.602;18.356;2023-08-24T02:43:13;63055.25;;;-142.69;100.00
10342;BME280;5216;54.602;18.356;2023-08-24T02:45:39;63055.25;;;-142.69;100.00
10342;BME280;5216;54.602;18.356;2023-08-24T02:48:07;63055.25;;;-142.69;100.00
10342;BME280;5216;54.602;18.356;2023-08-24T02:50:34;63055.25;;;-142.69;100.00
10342;BME280;5216;54.602;18.356;2023-08-24T02:53:01;63055.25;;;-142.69;100.00
10342;BME280;5216;54.602;18.356;2023-08-24T02:55:32;63055.25;;;-142.69;100.00
10342;BME280;5216;54.602;18.356;2023-08-24T02:57:58;63055.25;;;-142.69;100.00
10342;BME280;5216;54.602;18.356;2023-08-24T03:00:25;63055.25;;;-142.69;100.00
10342;BME280;5216;54.602;18.356;2023-08-24T03:02:52;63055.25;;;-142.69;100.00
10342;BME280;5216;54.602;18.356;2023-08-24T03:05:19;63055.25;;;-142.69;100.00
10342;BME280;5216;54.602;18.356;2023-08-24T03:07:46;63055.25;;;-142.69;100.00
10342;BME280;5216;54.602;18.356;2023-08-24T03:10:12;63055.25;;;-142.69;100.00
10342;BME280;5216;54.602;18.356;2023-08-24T03:12:39;63055.25;;;-142.69;100.00
10342;BME280;5216;54.602;18.356;2023-08-24T03:15:06;63055.25;;;-142.69;100.00
10342;BME280;5216;54.602;18.356;2023-08-24T03:17:33;63055.25;;;-142.69;100.00
10342;BME280;5216;54.602;18.356;2023-08-24T03:31:53;63055.25;;;-142.69;100.00
10342;BME280;5216;54.602;18.356;2023-08-24T03:34:20;63055.25;;;-142.69;100.00
10342;BME280;5216;54.602;18.356;2023-08-24T03:36:49;63055.25;;;-142.69;100.00
10342;BME280;5216;54.602;18.356;2023-08-24T03:39:16;63055.25;;;-142.69;100.00
10342;BME280;5216;54.602;18.356;2023-08-24T03:41:43;63055.25;;;-142.69;100.00
10342;BME280;5216;54.602;18.356;2023-08-24T03:44:10;63055.25;;;-142.69;100.00
10342;BME280;5216;54.602;18.356;2023-08-24T03:46:37;63055.25;;;-142.69;100.00
10342;BME280;5216;54.602;18.356;2023-08-24T03:49:04;63055.25;;;-142.69;100.00
10342;BME280;5216;54.602;18.356;2023-08-24T03:51:31;63055.25;;;-142.69;100.00
10342;BME280;5216;54.602;18.356;2023-08-24T03:54:01;63055.25;;;-142.69;100.00
10342;BME280;5216;54.602;18.356;2023-08-24T03:56:29;63055.25;;;-142.69;100.00
10342;BME280;5216;54.602;18.356;2023-08-24T03:58:56;63055.25;;;-142.69;100.00
10342;BME280;5216;54.602;18.356;2023-08-24T04:01:23;63055.25;;;-142.69;100.00
10342;BME280;5216;54.602;18.356;2023-08-24T04:03:53;63055.25;;;-142.69;100.00
10342;BME280;5216;54.602;18.356;2023-08-24T04:06:20;63055.25;;;-142.69;100.00
10342;BME280;5216;54.602;18.356;2023-08-24T04:08:46;63055.25;;;-142.69;100.00
10342;BME280;5216;54.602;18.356;2023-08-24T04:11:13;63055.25;;;-142.69;100.00
10342;BME280;5216;54.602;18.356;2023-08-24T04:13:40;63055.25;;;-142.69;100.00
10342;BME280;5216;54.602;18.356;2023-08-24T04:16:08;63055.25;;;-142.69;100.00
10342;BME280;5216;54.602;18.356;2023-08-24T04:18:35;63055.25;;;-142.69;100.00
10342;BME280;5216;54.602;18.356;2023-08-24T04:21:02;63055.25;;;-142.69;100.00
10342;BME280;5216;54.602;18.356;2023-08-24T04:23:29;63055.25;;;-142.69;100.00
10342;BME280;5216;54.602;18.356;2023-08-24T04:25:58;63055.25;;;-142.69;100.00
10342;BME280;5216;54.602;18.356;2023-08-24T04:28:25;63055.25;;;-142.69;100.00
10342;BME280;5216;54.602;18.356;2023-08-24T04:30:54;63055.25;;;-142.69;100.00
10342;BME280;5216;54.602;18.356;2023-08-24T04:41:08;63055.25;;;-142.69;100.00
10342;BME280;5216;54.602;18.356;2023-08-24T04:43:35;63055.25;;;-142.69;100.00
10342;BME280;5216;54.602;18.356;2023-08-24T04:46:05;63055.25;;;-142.69;100.00
10342;BME280;5216;54.602;18.356;2023-08-24T04:48:32;63055.25;;;-142.69;100.00
10342;BME280;5216;54.602;18.356;2023-08-24T04:51:01;63055.25;;;-142.69;100.00
10342;BME280;5216;54.602;18.356;2023-08-24T04:53:29;63055.25;;;-142.69;100.00
10342;BME280;5216;54.602;18.356;2023-08-24T04:55:56;63055.25;;;-142.69;100.00
10342;BME280;5216;54.602;18.356;2023-08-24T04:58:23;63055.25;;;-142.69;100.00
10342;BME280;5216;54.602;18.356;2023-08-24T05:00:51;63055.25;;;-142.69;100.00
10342;BME280;5216;54.602;18.356;2023-08-24T05:03:18;63055.25;;;-142.69;100.00
10342;BME280;5216;54.602;18.356;2023-08-24T05:05:47;63055.25;;;-142.69;100.00
10342;BME280;5216;54.602;18.356;2023-08-24T05:08:14;63055.25;;;-142.69;100.00
10342;BME280;5216;54.602;18.356;2023-08-24T05:10:40;63055.25;;;-142.69;100.00
10342;BME280;5216;54.602;18.356;2023-08-24T05:13:07;63055.25;;;-142.69;100.00
10342;BME280;5216;54.602;18.356;2023-08-24T05:15:34;63055.25;;;-142.69;100.00
10342;BME280;5216;54.602;18.356;2023-08-24T05:18:01;63055.25;;;-142.69;100.00
10342;BME280;5216;54.602;18.356;2023-08-24T05:20:28;63055.25;;;-142.69;100.00
10342;BME280;5216;54.602;18.356;2023-08-24T05:22:55;63055.25;;;-142.69;100.00
10342;BME280;5216;54.602;18.356;2023-08-24T05:25:22;63055.25;;;-142.69;100.00
10342;BME280;5216;54.602;18.356;2023-08-24T05:27:49;63055.25;;;-142.69;100.00
10342;BME280;5216;54.602;18.356;2023-08-24T05:30:17;63055.25;;;-142.69;100.00
10342;BME280;5216;54.602;18.356;2023-08-24T05:32:44;63055.25;;;-142.69;100.00
10342;BME280;5216;54.602;18.356;2023-08-24T05:43:32;63055.25;;;-142.69;100.00
10342;BME280;5216;54.602;18.356;2023-08-24T05:45:59;63055.25;;;-142.69;100.00
10342;BME280;5216;54.602;18.356;2023-08-24T05:48:25;63055.25;;;-142.69;100.00
10342;BME280;5216;54.602;18.356;2023-08-24T05:50:52;63055.25;;;-142.69;100.00
10342;BME280;5216;54.602;18.356;2023-08-24T05:53:19;63055.25;;;-142.69;100.00
10342;BME280;5216;54.602;18.356;2023-08-24T05:55:46;63055.25;;;-142.69;100.00
10342;BME280;5216;54.602;18.356;2023-08-24T05:58:12;63055.25;;;-142.69;100.00
10342;BME280;5216;54.602;18.356;2023-08-24T06:00:39;63055.25;;;-142.69;100.00
10342;BME280;5216;54.602;18.356;2023-08-24T06:03:06;63055.25;;;-142.69;100.00
10342;BME280;5216;54.602;18.356;2023-08-24T06:05:34;63055.25;;;-142.69;100.00
10342;BME280;5216;54.602;18.356;2023-08-24T06:08:01;63055.25;;;-142.69;100.00
10342;BME280;5216;54.602;18.356;2023-08-24T06:10:28;63055.25;;;-142.69;100.00
10342;BME280;5216;54.602;18.356;2023-08-24T06:12:55;63055.25;;;-142.69;100.00
10342;BME280;5216;54.602;18.356;2023-08-24T06:15:22;63055.25;;;-142.69;100.00
10342;BME280;5216;54.602;18.356;2023-08-24T06:17:51;63055.25;;;-142.69;100.00
10342;BME280;5216;54.602;18.356;2023-08-24T06:20:19;63055.25;;;-142.69;100.00
10342;BME280;5216;54.602;18.356;2023-08-24T06:22:46;63055.25;;;-142.69;100.00
10342;BME280;5216;54.602;18.356;2023-08-24T06:25:13;63055.25;;;-142.69;100.00
10342;BME280;5216;54.602;18.356;2023-08-24T06:27:46;63055.25;;;-142.69;100.00
10342;BME280;5216;54.602;18.356;2023-08-24T06:30:13;63055.25;;;-142.69;100.00
10342;BME280;5216;54.602;18.356;2023-08-24T06:32:39;63055.25;;;-142.69;100.00
10342;BME280;5216;54.602;18.356;2023-08-24T06:35:07;63055.25;;;-142.69;100.00
10342;BME280;5216;54.602;18.356;2023-08-24T06:41:34;63055.25;;;-142.69;100.00
10342;BME280;5216;54.602;18.356;2023-08-24T06:44:01;63055.25;;;-142.69;100.00
10342;BME280;5216;54.602;18.356;2023-08-24T06:46:29;63055.25;;;-142.69;100.00
10342;BME280;5216;54.602;18.356;2023-08-24T06:48:55;63055.25;;;-142.69;100.00
10342;BME280;5216;54.602;18.356;2023-08-24T06:51:22;63055.25;;;-142.69;100.00
10342;BME280;5216;54.602;18.356;2023-08-24T07:06:08;63055.25;;;-142.69;100.00
10342;BME280;5216;54.602;18.356;2023-08-24T07:08:38;63055.25;;;-142.69;100.00
10342;BME280;5216;54.602;18.356;2023-08-24T07:11:06;63055.25;;;-142.69;100.00
10342;BME280;5216;54.602;18.356;2023-08-24T07:13:33;63055.25;;;-142.69;100.00
10342;BME280;5216;54.602;18.356;2023-08-24T07:16:01;63055.25;;;-142.69;100.00
10342;BME280;5216;54.602;18.356;2023-08-24T07:34:28;63055.25;;;-142.69;100.00
10342;BME280;5216;54.602;18.356;2023-08-24T07:36:55;63055.25;;;-142.69;100.00
10342;BME280;5216;54.602;18.356;2023-08-24T07:39:22;63055.25;;;-142.69;100.00
10342;BME280;5216;54.602;18.356;2023-08-24T07:41:49;63055.25;;;-142.69;100.00
10342;BME280;5216;54.602;18.356;2023-08-24T07:44:16;63055.25;;;-142.69;100.00
10342;BME280;5216;54.602;18.356;2023-08-24T07:46:43;63055.25;;;-142.69;100.00
10342;BME280;5216;54.602;18.356;2023-08-24T07:49:10;63055.25;;;-142.69;100.00
10342;BME280;5216;54.602;18.356;2023-08-24T07:51:40;63055.25;;;-142.69;100.00
10342;BME280;5216;54.602;18.356;2023-08-24T07:54:06;63055.25;;;-142.69;100.00
10342;BME280;5216;54.602;18.356;2023-08-24T07:56:33;63055.25;;;-142.69;100.00
10342;BME280;5216;54.602;18.356;2023-08-24T07:59:00;63055.25;;;-142.69;100.00
10342;BME280;5216;54.602;18.356;2023-08-24T08:01:27;63055.25;;;-142.69;100.00
10342;BME280;5216;54.602;18.356;2023-08-24T08:07:42;63055.25;;;-142.69;100.00
10342;BME280;5216;54.602;18.356;2023-08-24T08:10:09;63055.25;;;-142.69;100.00
10342;BME280;5216;54.602;18.356;2023-08-24T08:12:36;63055.25;;;-142.69;100.00
10342;BME280;5216;54.602;18.356;2023-08-24T08:15:03;63055.25;;;-142.69;100.00
10342;BME280;5216;54.602;18.356;2023-08-24T08:25:24;63055.25;;;-142.69;100.00
10342;BME280;5216;54.602;18.356;2023-08-24T08:27:51;63055.25;;;-142.69;100.00
10342;BME280;5216;54.602;18.356;2023-08-24T08:30:18;63055.25;;;-142.69;100.00
10342;BME280;5216;54.602;18.356;2023-08-24T08:32:47;63055.25;;;-142.69;100.00
10342;BME280;5216;54.602;18.356;2023-08-24T08:35:14;63055.25;;;-142.69;100.00
10342;BME280;5216;54.602;18.356;2023-08-24T08:37:41;63055.25;;;-142.69;100.00
10342;BME280;5216;54.602;18.356;2023-08-24T08:40:10;102153.66;;;27.70;100.00
10342;BME280;5216;54.602;18.356;2023-08-24T08:50:25;102132.91;;;27.68;100.00
10342;BME280;5216;54.602;18.356;2023-08-24T08:52:54;102109.44;;;27.58;100.00
10342;BME280;5216;54.602;18.356;2023-08-24T08:55:21;102295.09;;;-96.21;100.00
10342;BME280;5216;54.602;18.356;2023-08-24T08:57:49;102141.19;;;27.81;100.00
10342;BME280;5216;54.602;18.356;2023-08-24T09:00:17;102027.38;;;27.34;100.00
10342;BME280;5216;54.602;18.356;2023-08-24T09:02:45;102243.16;;;28.26;100.00
10342;BME280;5216;54.602;18.356;2023-08-24T09:05:14;102333.63;;;28.64;100.00
10342;BME280;5216;54.602;18.356;2023-08-24T09:07:42;102293.91;;;28.51;100.00
10342;BME280;5216;54.602;18.356;2023-08-24T09:10:11;102299.66;;;28.54;100.00
10342;BME280;5216;54.602;18.356;2023-08-24T09:12:38;102297.72;;;28.56;100.00
10342;BME280;5216;54.602;18.356;2023-08-24T09:15:11;102235.66;;;28.31;100.00
10342;BME280;5216;54.602;18.356;2023-08-24T09:17:50;102307.22;;;28.57;100.00
10342;BME280;5216;54.602;18.356;2023-08-24T09:20:18;102189.44;;;28.04;100.00
10342;BME280;5216;54.602;18.356;2023-08-24T09:22:44;102197.41;;;28.13;100.00
10342;BME280;5216;54.602;18.356;2023-08-24T09:25:12;102272.91;;;28.43;100.00
10342;BME280;5216;54.602;18.356;2023-08-24T09:27:42;102252.09;;;28.41;100.00
10342;BME280;5216;54.602;18.356;2023-08-24T09:30:09;102289.03;;;28.56;100.00
10342;BME280;5216;54.602;18.356;2023-08-24T09:32:36;102370.34;;;28.90;100.00
10342;BME280;5216;54.602;18.356;2023-08-24T09:37:35;102239.31;;;28.38;100.00
10342;BME280;5216;54.602;18.356;2023-08-24T09:40:04;102259.34;;;28.47;100.00
10342;BME280;5216;54.602;18.356;2023-08-24T09:42:40;102302.34;;;28.63;100.00
10342;BME280;5216;54.602;18.356;2023-08-24T09:45:11;102273.63;;;28.53;100.00
10342;BME280;5216;54.602;18.356;2023-08-24T09:47:38;102212.59;;;28.35;100.00
10342;BME280;5216;54.602;18.356;2023-08-24T09:50:11;102333.47;;;28.83;100.00
10342;BME280;5216;54.602;18.356;2023-08-24T09:52:40;102199.16;;;28.30;100.00
10342;BME280;5216;54.602;18.356;2023-08-24T09:55:09;102239.19;;;28.48;100.00
10342;BME280;5216;54.602;18.356;2023-08-24T09:57:39;102262.19;;;28.54;100.00
10342;BME280;5216;54.602;18.356;2023-08-24T10:00:07;102277.41;;;28.58;100.00
10342;BME280;5216;54.602;18.356;2023-08-24T10:02:48;102219.06;;;28.40;100.00
10342;BME280;5216;54.602;18.356;2023-08-24T10:05:19;102314.09;;;28.76;100.00
10342;BME280;5216;54.602;18.356;2023-08-24T10:08:09;102330.84;;;28.83;100.00
10342;BME280;5216;54.602;18.356;2023-08-24T10:10:38;102352.38;;;28.95;100.00
10342;BME280;5216;54.602;18.356;2023-08-24T10:13:10;102368.84;;;29.05;100.00
10342;BME280;5216;54.602;18.356;2023-08-24T10:15:38;102406.44;;;29.22;100.00
10342;BME280;5216;54.602;18.356;2023-08-24T10:18:15;102291.03;;;28.80;100.00
10342;BME280;5216;54.602;18.356;2023-08-24T10:20:43;63055.25;;;29.24;100.00
10342;BME280;5216;54.602;18.356;2023-08-24T10:23:14;102401.72;;;29.25;100.00
10342;BME280;5216;54.602;18.356;2023-08-24T10:25:42;102418.38;;;29.34;100.00
10342;BME280;5216;54.602;18.356;2023-08-24T10:28:10;102402.59;;;29.26;100.00
10342;BME280;5216;54.602;18.356;2023-08-24T10:30:39;102249.44;;;28.59;100.00
10342;BME280;5216;54.602;18.356;2023-08-24T10:33:07;102363.59;;;29.05;100.00
10342;BME280;5216;54.602;18.356;2023-08-24T10:35:35;102325.03;;;28.97;100.00
10342;BME280;5216;54.602;18.356;2023-08-24T10:38:02;102381.06;;;29.22;100.00
10342;BME280;5216;54.602;18.356;2023-08-24T10:40:33;102434.84;;;29.44;100.00
10342;BME280;5216;54.602;18.356;2023-08-24T10:43:04;102454.72;;;29.54;100.00
10342;BME280;5216;54.602;18.356;2023-08-24T10:45:54;102233.28;;;28.64;100.00
10342;BME280;5216;54.602;18.356;2023-08-24T10:48:24;102208.47;;;28.50;100.00
10342;BME280;5216;54.602;18.356;2023-08-24T10:53:40;102187.31;;;28.43;100.00
10342;BME280;5216;54.602;18.356;2023-08-24T10:56:12;63055.25;;;-142.69;100.00
10342;BME280;5216;54.602;18.356;2023-08-24T10:58:39;102134.63;;;28.21;100.00
10342;BME280;5216;54.602;18.356;2023-08-24T11:01:05;102123.22;;;28.22;100.00
10342;BME280;5216;54.602;18.356;2023-08-24T11:03:33;24665.53;;;28.01;100.00
10342;BME280;5216;54.602;18.356;2023-08-24T11:06:00;83677.47;;;28.64;100.00
10342;BME280;5216;54.602;18.356;2023-08-24T11:08:46;102023.84;;;27.86;100.00
10342;BME280;5216;54.602;18.356;2023-08-24T11:11:20;26237.91;;;28.05;100.00
10342;BME280;5216;54.602;18.356;2023-08-24T11:14:19;102091.91;;;28.12;100.00
10342;BME280;5216;54.602;18.356;2023-08-24T11:16:49;63055.25;;;-142.69;100.00
10342;BME280;5216;54.602;18.356;2023-08-24T11:19:15;101957.88;;;27.67;100.00
10342;BME280;5216;54.602;18.356;2023-08-24T11:21:44;101989.50;;;27.81;100.00
10342;BME280;5216;54.602;18.356;2023-08-24T11:24:15;63055.25;;;-142.69;0.00
10342;BME280;5216;54.602;18.356;2023-08-24T11:26:47;102199.06;;;28.65;100.00
10342;BME280;5216;54.602;18.356;2023-08-24T11:29:15;102142.56;;;28.54;100.00
10342;BME280;5216;54.602;18.356;2023-08-24T11:31:42;63055.25;;;-142.69;100.00
10342;BME280;5216;54.602;18.356;2023-08-24T11:34:10;63055.25;;;-142.69;100.00
10342;BME280;5216;54.602;18.356;2023-08-24T11:36:47;63055.25;;;-142.69;100.00
10342;BME280;5216;54.602;18.356;2023-08-24T11:39:19;63055.25;;;-142.69;100.00
10342;BME280;5216;54.602;18.356;2023-08-24T11:42:00;63055.25;;;-142.69;100.00
10342;BME280;5216;54.602;18.356;2023-08-24T11:44:28;63055.25;;;28.60;100.00
10342;BME280;5216;54.602;18.356;2023-08-24T11:46:57;63055.25;;;-142.69;100.00
10342;BME280;5216;54.602;18.356;2023-08-24T11:49:25;63055.25;;;-142.69;100.00
10342;BME280;5216;54.602;18.356;2023-08-24T11:51:52;63055.25;;;-142.69;100.00
10342;BME280;5216;54.602;18.356;2023-08-24T11:54:19;63055.25;;;-142.69;100.00
10342;BME280;5216;54.602;18.356;2023-08-24T11:56:46;63055.25;;;-142.69;100.00
10342;BME280;5216;54.602;18.356;2023-08-24T11:59:16;63055.25;;;-142.69;100.00
10342;BME280;5216;54.602;18.356;2023-08-24T12:01:45;63055.25;;;-142.69;100.00
10342;BME280;5216;54.602;18.356;2023-08-24T12:04:13;102244.13;;;28.94;100.00
10342;BME280;5216;54.602;18.356;2023-08-24T12:06:40;102317.56;;;29.28;100.00
10342;BME280;5216;54.602;18.356;2023-08-24T12:09:07;102334.81;;;29.39;100.00
10342;BME280;5216;54.602;18.356;2023-08-24T12:11:37;102329.75;;;29.37;100.00
10342;BME280;5216;54.602;18.356;2023-08-24T12:14:06;102337.13;;;29.42;100.00
10342;BME280;5216;54.602;18.356;2023-08-24T12:16:36;102321.56;;;29.40;100.00
10342;BME280;5216;54.602;18.356;2023-08-24T12:19:07;102229.44;;;29.01;100.00
10342;BME280;5216;54.602;18.356;2023-08-24T12:21:34;102250.13;;;29.13;100.00
10342;BME280;5216;54.602;18.356;2023-08-24T12:24:02;102137.19;;;28.64;100.00
10342;BME280;5216;54.602;18.356;2023-08-24T12:26:33;102212.03;;;28.92;100.00
10342;BME280;5216;54.602;18.356;2023-08-24T12:29:08;102305.13;;;29.30;100.00
10342;BME280;5216;54.602;18.356;2023-08-24T12:31:36;102418.28;;;29.77;100.00
10342;BME280;5216;54.602;18.356;2023-08-24T12:34:04;102382.31;;;29.62;100.00
10342;BME280;5216;54.602;18.356;2023-08-24T12:36:36;102427.31;;;29.83;100.00
10342;BME280;5216;54.602;18.356;2023-08-24T12:39:04;102552.13;;;30.37;100.00
10342;BME280;5216;54.602;18.356;2023-08-24T12:41:32;102439.53;;;29.92;100.00
10342;BME280;5216;54.602;18.356;2023-08-24T12:43:59;102417.22;;;29.88;100.00
10342;BME280;5216;54.602;18.356;2023-08-24T12:46:34;102462.56;;;30.06;100.00
10342;BME280;5216;54.602;18.356;2023-08-24T12:49:02;102399.28;;;29.83;100.00
10342;BME280;5216;54.602;18.356;2023-08-24T12:51:29;102592.78;;;30.58;100.00
10342;BME280;5216;54.602;18.356;2023-08-24T12:53:56;102549.72;;;30.51;100.00
10342;BME280;5216;54.602;18.356;2023-08-24T12:56:22;102693.69;;;31.08;100.00
10342;BME280;5216;54.602;18.356;2023-08-24T12:58:49;102667.91;;;31.03;100.00
10342;BME280;5216;54.602;18.356;2023-08-24T13:01:16;102677.28;;;31.05;100.00
10342;BME280;5216;54.602;18.356;2023-08-24T13:03:43;102889.53;;;31.89;100.00
10342;BME280;5216;54.602;18.356;2023-08-24T13:06:10;102742.41;;;31.28;100.00
10342;BME280;5216;54.602;18.356;2023-08-24T13:08:50;102605.16;;;30.74;100.00
10342;BME280;5216;54.602;18.356;2023-08-24T13:11:17;102595.13;;;30.70;100.00
10342;BME280;5216;54.602;18.356;2023-08-24T13:13:44;102563.09;;;30.58;100.00
10342;BME280;5216;54.602;18.356;2023-08-24T13:16:12;102628.53;;;30.85;100.00
10342;BME280;5216;54.602;18.356;2023-08-24T13:18:39;102971.50;;;32.36;100.00
10342;BME280;5216;54.602;18.356;2023-08-24T13:21:06;103010.41;;;32.50;100.00
10342;BME280;5216;54.602;18.356;2023-08-24T13:23:33;103239.16;;;33.48;100.00
10342;BME280;5216;54.602;18.356;2023-08-24T13:26:00;103367.03;;;34.12;100.00
10342;BME280;5216;54.602;18.356;2023-08-24T13:28:27;103601.94;;;35.15;100.00
10342;BME280;5216;54.602;18.356;2023-08-24T13:30:56;103404.28;;;34.42;100.00
10342;BME280;5216;54.602;18.356;2023-08-24T13:33:23;103358.00;;;34.22;100.00
10342;BME280;5216;54.602;18.356;2023-08-24T13:35:50;103195.13;;;33.57;100.00
10342;BME280;5216;54.602;18.356;2023-08-24T13:38:16;103050.38;;;33.03;100.00
10342;BME280;5216;54.602;18.356;2023-08-24T13:40:43;103155.50;;;33.40;100.00
10342;BME280;5216;54.602;18.356;2023-08-24T13:43:13;103203.41;;;33.62;100.00
10342;BME280;5216;54.602;18.356;2023-08-24T13:45:40;103169.19;;;33.52;100.00
10342;BME280;5216;54.602;18.356;2023-08-24T13:48:08;50012.56;;;33.52;100.00
10342;BME280;5216;54.602;18.356;2023-08-24T13:50:35;103082.09;;;33.20;100.00
10342;BME280;5216;54.602;18.356;2023-08-24T13:53:02;103107.50;;;33.37;100.00
10342;BME280;5216;54.602;18.356;2023-08-24T13:55:29;102873.69;;;32.47;100.00
10342;BME280;5216;54.602;18.356;2023-08-24T13:57:55;63055.25;;;-142.69;100.00
10342;BME280;5216;54.602;18.356;2023-08-24T14:00:22;63055.25;;;-142.69;100.00
10342;BME280;5216;54.602;18.356;2023-08-24T14:02:49;102885.34;;;32.44;100.00
10342;BME280;5216;54.602;18.356;2023-08-24T14:05:17;102831.34;;;32.16;100.00
10342;BME280;5216;54.602;18.356;2023-08-24T14:07:44;102922.94;;;32.54;100.00
10342;BME280;5216;54.602;18.356;2023-08-24T14:10:11;102909.91;;;32.53;100.00
10342;BME280;5216;54.602;18.356;2023-08-24T14:12:43;102898.88;;;32.49;100.00
10342;BME280;5216;54.602;18.356;2023-08-24T14:15:10;102894.44;;;32.50;100.00
10342;BME280;5216;54.602;18.356;2023-08-24T14:17:38;102814.22;;;32.20;100.00
10342;BME280;5216;54.602;18.356;2023-08-24T14:20:05;102650.72;;;31.49;100.00
10342;BME280;5216;54.602;18.356;2023-08-24T14:22:32;102700.28;;;31.62;100.00
10342;BME280;5216;54.602;18.356;2023-08-24T14:24:59;102689.06;;;31.60;100.00
10342;BME280;5216;54.602;18.356;2023-08-24T14:27:26;102753.44;;;31.81;100.00
10342;BME280;5216;54.602;18.356;2023-08-24T14:29:52;102726.78;;;31.68;100.00
10342;BME280;5216;54.602;18.356;2023-08-24T14:32:19;102744.19;;;31.61;100.00
10342;BME280;5216;54.602;18.356;2023-08-24T14:34:46;102807.91;;;31.89;100.00
10342;BME280;5216;54.602;18.356;2023-08-24T14:37:14;102896.06;;;32.27;100.00
10342;BME280;5216;54.602;18.356;2023-08-24T14:39:41;102831.28;;;32.00;100.00
10342;BME280;5216;54.602;18.356;2023-08-24T14:42:08;102815.81;;;31.97;100.00
10342;BME280;5216;54.602;18.356;2023-08-24T14:44:34;102873.31;;;32.18;100.00
10342;BME280;5216;54.602;18.356;2023-08-24T14:47:01;102825.84;;;32.01;100.00
10342;BME280;5216;54.602;18.356;2023-08-24T14:49:28;102831.28;;;32.00;100.00
10342;BME280;5216;54.602;18.356;2023-08-24T14:51:55;102760.66;;;31.71;100.00
10342;BME280;5216;54.602;18.356;2023-08-24T14:54:22;102686.72;;;31.48;100.00
10342;BME280;5216;54.602;18.356;2023-08-24T14:56:49;102637.53;;;31.25;100.00